sensor_id;sensor_type;location;lat;lon;timestamp;temperature;humidity
2565;DHT22;1292;48.020;7.822;2023-02-02T06:45:29;5.80;99.90
2565;DHT22;1292;48.020;7.822;2023-02-02T06:47:58;5.80;99.90
2565;DHT22;1292;48.020;7.822;2023-02-02T06:50:28;5.80;99.90
2565;DHT22;1292;48.020;7.822;2023-02-02T06:52:54;5.90;99.90
2565;DHT22;1292;48.020;7.822;2023-02-02T06:55:21;5.90;99.90
2565;DHT22;1292;48.020;7.822;2023-02-02T06:57:55;5.80;99.90
2565;DHT22;1292;48.020;7.822;2023-02-02T07:00:22;5.90;99.90
2565;DHT22;1292;48.020;7.822;2023-02-02T07:02:50;5.90;99.90
2565;DHT22;1292;48.020;7.822;2023-02-02T07:05:17;5.90;99.90
2565;DHT22;1292;48.020;7.822;2023-02-02T07:07:46;5.80;99.90
2565;DHT22;1292;48.020;7.822;2023-02-02T07:10:13;5.80;99.90
2565;DHT22;1292;48.020;7.822;2023-02-02T07:12:40;5.80;99.90
2565;DHT22;1292;48.020;7.822;2023-02-02T07:15:07;5.90;99.90
2565;DHT22;1292;48.020;7.822;2023-02-02T07:17:34;5.90;99.90
2565;DHT22;1292;48.020;7.822;2023-02-02T07:20:03;5.90;99.90
2565;DHT22;1292;48.020;7.822;2023-02-02T07:22:29;6.00;99.90
2565;DHT22;1292;48.020;7.822;2023-02-02T07:24:56;5.90;99.90
2565;DHT22;1292;48.020;7.822;2023-02-02T07:27:23;6.00;99.90
2565;DHT22;1292;48.020;7.822;2023-02-02T07:29:50;6.00;99.90
2565;DHT22;1292;48.020;7.822;2023-02-02T07:32:17;6.00;99.90
2565;DHT22;1292;48.020;7.822;2023-02-02T07:34:43;6.00;99.90
2565;DHT22;1292;48.020;7.822;2023-02-02T07:37:11;6.00;99.90
2565;DHT22;1292;48.020;7.822;2023-02-02T07:39:38;6.00;99.90
2565;DHT22;1292;48.020;7.822;2023-02-02T07:42:09;6.00;99.90
2565;DHT22;1292;48.020;7.822;2023-02-02T07:44:37;6.00;99.90
2565;DHT22;1292;48.020;7.822;2023-02-02T07:47:03;6.00;99.90
2565;DHT22;1292;48.020;7.822;2023-02-02T07:49:30;5.90;99.90
2565;DHT22;1292;48.020;7.822;2023-02-02T07:51:57;6.00;99.90
2565;DHT22;1292;48.020;7.822;2023-02-02T07:54:25;6.00;99.90
2565;DHT22;1292;48.020;7.822;2023-02-02T07:56:52;6.10;99.90
2565;DHT22;1292;48.020;7.822;2023-02-02T07:59:19;6.10;99.90
2565;DHT22;1292;48.020;7.822;2023-02-02T08:01:46;6.10;99.90
2565;DHT22;1292;48.020;7.822;2023-02-02T08:04:13;6.10;99.90
2565;DHT22;1292;48.020;7.822;2023-02-02T08:06:40;6.00;99.90
2565;DHT22;1292;48.020;7.822;2023-02-02T08:09:08;6.00;99.90
2565;DHT22;1292;48.020;7.822;2023-02-02T08:11:37;6.00;99.90
2565;DHT22;1292;48.020;7.822;2023-02-02T08:14:04;5.90;99.90
2565;DHT22;1292;48.020;7.822;2023-02-02T08:16:33;6.00;99.90
2565;DHT22;1292;48.020;7.822;2023-02-02T08:19:00;6.00;99.90
2565;DHT22;1292;48.020;7.822;2023-02-02T08:21:27;6.00;99.90
2565;DHT22;1292;48.020;7.822;2023-02-02T08:23:54;6.00;99.90
2565;DHT22;1292;48.020;7.822;2023-02-02T08:26:22;6.10;99.90
2565;DHT22;1292;48.020;7.822;2023-02-02T08:28:53;6.10;99.90
2565;DHT22;1292;48.020;7.822;2023-02-02T08:31:22;6.10;99.90
2565;DHT22;1292;48.020;7.822;2023-02-02T08:33:49;6.20;99.90
2565;DHT22;1292;48.020;7.822;2023-02-02T08:36:20;6.20;99.90
2565;DHT22;1292;48.020;7.822;2023-02-02T08:38:48;6.20;99.90
2565;DHT22;1292;48.020;7.822;2023-02-02T08:41:17;6.30;99.90
2565;DHT22;1292;48.020;7.822;2023-02-02T08:43:44;6.30;99.90
2565;DHT22;1292;48.020;7.822;2023-02-02T08:46:13;6.30;99.90
2565;DHT22;1292;48.020;7.822;2023-02-02T08:48:41;6.30;99.90
2565;DHT22;1292;48.020;7.822;2023-02-02T08:51:09;6.30;99.90
2565;DHT22;1292;48.020;7.822;2023-02-02T08:53:37;6.30;99.90
2565;DHT22;1292;48.020;7.822;2023-02-02T08:56:06;6.30;99.90
2565;DHT22;1292;48.020;7.822;2023-02-02T08:58:33;6.40;99.90
2565;DHT22;1292;48.020;7.822;2023-02-02T09:01:04;6.40;99.90
2565;DHT22;1292;48.020;7.822;2023-02-02T09:03:33;6.50;99.90
2565;DHT22;1292;48.020;7.822;2023-02-02T09:06:04;6.50;99.90
2565;DHT22;1292;48.020;7.822;2023-02-02T09:08:31;6.50;99.90
2565;DHT22;1292;48.020;7.822;2023-02-02T09:11:03;6.50;99.90
2565;DHT22;1292;48.020;7.822;2023-02-02T09:13:30;6.60;99.90
2565;DHT22;1292;48.020;7.822;2023-02-02T09:15:58;6.60;99.90
2565;DHT22;1292;48.020;7.822;2023-02-02T09:18:25;6.60;99.90
2565;DHT22;1292;48.020;7.822;2023-02-02T09:20:54;6.60;99.90
2565;DHT22;1292;48.020;7.822;2023-02-02T09:23:21;6.60;99.90
2565;DHT22;1292;48.020;7.822;2023-02-02T09:25:47;6.70;99.90
2565;DHT22;1292;48.020;7.822;2023-02-02T09:28:14;6.70;99.90
2565;DHT22;1292;48.020;7.822;2023-02-02T09:30:41;6.70;99.90
2565;DHT22;1292;48.020;7.822;2023-02-02T09:33:08;6.70;99.90
2565;DHT22;1292;48.020;7.822;2023-02-02T09:35:34;6.80;99.90
2565;DHT22;1292;48.020;7.822;2023-02-02T09:38:03;6.80;99.90
2565;DHT22;1292;48.020;7.822;2023-02-02T09:40:31;6.90;99.90
2565;DHT22;1292;48.020;7.822;2023-02-02T09:43:07;6.80;99.90
2565;DHT22;1292;48.020;7.822;2023-02-02T09:45:46;6.80;99.90
2565;DHT22;1292;48.020;7.822;2023-02-02T09:48:23;6.80;99.90
2565;DHT22;1292;48.020;7.822;2023-02-02T09:50:53;6.80;99.90
2565;DHT22;1292;48.020;7.822;2023-02-02T09:53:38;6.70;99.90
2565;DHT22;1292;48.020;7.822;2023-02-02T09:56:11;6.70;99.90
2565;DHT22;1292;48.020;7.822;2023-02-02T09:58:44;6.80;99.90
2565;DHT22;1292;48.020;7.822;2023-02-02T10:01:17;6.80;99.90
2565;DHT22;1292;48.020;7.822;2023-02-02T10:03:56;6.80;99.90
2565;DHT22;1292;48.020;7.822;2023-02-02T10:06:29;6.80;99.90
2565;DHT22;1292;48.020;7.822;2023-02-02T10:09:07;6.80;99.90
2565;DHT22;1292;48.020;7.822;2023-02-02T10:11:43;6.90;99.90
2565;DHT22;1292;48.020;7.822;2023-02-02T10:14:17;6.90;99.90
2565;DHT22;1292;48.020;7.822;2023-02-02T10:16:47;6.90;99.90
2565;DHT22;1292;48.020;7.822;2023-02-02T10:19:15;6.80;99.90
2565;DHT22;1292;48.020;7.822;2023-02-02T10:21:47;6.80;99.90
2565;DHT22;1292;48.020;7.822;2023-02-02T10:24:20;6.80;99.90
2565;DHT22;1292;48.020;7.822;2023-02-02T10:26:50;6.80;99.90
2565;DHT22;1292;48.020;7.822;2023-02-02T10:29:28;6.90;99.90
2565;DHT22;1292;48.020;7.822;2023-02-02T10:32:03;6.80;99.90
2565;DHT22;1292;48.020;7.822;2023-02-02T10:34:35;6.80;99.90
2565;DHT22;1292;48.020;7.822;2023-02-02T10:37:21;6.80;99.90
2565;DHT22;1292;48.020;7.822;2023-02-02T10:40:09;6.80;99.90
2565;DHT22;1292;48.020;7.822;2023-02-02T10:42:48;6.90;99.90
2565;DHT22;1292;48.020;7.822;2023-02-02T10:45:36;6.90;99.90
2565;DHT22;1292;48.020;7.822;2023-02-02T10:48:07;6.90;99.90
2565;DHT22;1292;48.020;7.822;2023-02-02T10:50:41;7.00;99.90
2565;DHT22;1292;48.020;7.822;2023-02-02T10:53:12;6.90;99.90
2565;DHT22;1292;48.020;7.822;2023-02-02T10:55:44;6.90;99.90
2565;DHT22;1292;48.020;7.822;2023-02-02T10:58:21;7.00;99.90
2565;DHT22;1292;48.020;7.822;2023-02-02T11:00:51;7.00;99.90
2565;DHT22;1292;48.020;7.822;2023-02-02T11:03:21;7.00;99.90
2565;DHT22;1292;48.020;7.822;2023-02-02T11:05:49;6.90;99.90
2565;DHT22;1292;48.020;7.822;2023-02-02T11:08:37;6.90;99.90
2565;DHT22;1292;48.020;7.822;2023-02-02T11:11:11;6.90;99.90
2565;DHT22;1292;48.020;7.822;2023-02-02T11:13:46;6.80;99.90
2565;DHT22;1292;48.020;7.822;2023-02-02T11:16:24;6.90;99.90
2565;DHT22;1292;48.020;7.822;2023-02-02T11:18:52;6.90;99.90
2565;DHT22;1292;48.020;7.822;2023-02-02T11:21:22;6.90;99.90
2565;DHT22;1292;48.020;7.822;2023-02-02T11:23:51;6.90;99.90
2565;DHT22;1292;48.020;7.822;2023-02-02T11:26:21;7.00;99.90
2565;DHT22;1292;48.020;7.822;2023-02-02T11:28:48;7.00;99.90
2565;DHT22;1292;48.020;7.822;2023-02-02T11:31:31;7.00;99.90
2565;DHT22;1292;48.020;7.822;2023-02-02T11:34:15;7.10;99.90
2565;DHT22;1292;48.020;7.822;2023-02-02T11:36:58;7.10;99.90
2565;DHT22;1292;48.020;7.822;2023-02-02T11:39:26;7.10;99.90
2565;DHT22;1292;48.020;7.822;2023-02-02T11:42:00;7.10;99.90
2565;DHT22;1292;48.020;7.822;2023-02-02T11:44:28;7.10;99.90
2565;DHT22;1292;48.020;7.822;2023-02-02T11:46:57;7.20;99.90
2565;DHT22;1292;48.020;7.822;2023-02-02T11:49:25;7.20;99.90
2565;DHT22;1292;48.020;7.822;2023-02-02T11:51:58;7.20;99.90
2565;DHT22;1292;48.020;7.822;2023-02-02T11:54:27;7.10;99.90
2565;DHT22;1292;48.020;7.822;2023-02-02T11:56:57;7.20;99.90
2565;DHT22;1292;48.020;7.822;2023-02-02T11:59:29;7.10;99.90
2565;DHT22;1292;48.020;7.822;2023-02-02T12:02:22;7.10;99.90
2565;DHT22;1292;48.020;7.822;2023-02-02T12:04:51;7.10;99.90
2565;DHT22;1292;48.020;7.822;2023-02-02T12:07:21;7.10;99.90
2565;DHT22;1292;48.020;7.822;2023-02-02T12:09:48;7.20;99.90
2565;DHT22;1292;48.020;7.822;2023-02-02T12:12:26;7.20;99.90
2565;DHT22;1292;48.020;7.822;2023-02-02T12:15:03;7.20;99.90
2565;DHT22;1292;48.020;7.822;2023-02-02T12:17:36;7.20;99.90
2565;DHT22;1292;48.020;7.822;2023-02-02T12:20:20;7.20;99.90
2565;DHT22;1292;48.020;7.822;2023-02-02T12:26:13;7.20;99.90
2565;DHT22;1292;48.020;7.822;2023-02-02T12:28:57;7.10;99.90
2565;DHT22;1292;48.020;7.822;2023-02-02T12:31:36;7.10;99.90
2565;DHT22;1292;48.020;7.822;2023-02-02T12:34:16;7.10;99.90
2565;DHT22;1292;48.020;7.822;2023-02-02T12:36:49;7.10;99.90
2565;DHT22;1292;48.020;7.822;2023-02-02T12:39:26;7.10;99.90
2565;DHT22;1292;48.020;7.822;2023-02-02T12:42:22;7.20;99.90
2565;DHT22;1292;48.020;7.822;2023-02-02T12:45:02;7.10;99.90
2565;DHT22;1292;48.020;7.822;2023-02-02T12:47:40;7.10;99.90
2565;DHT22;1292;48.020;7.822;2023-02-02T12:50:23;7.10;99.90
2565;DHT22;1292;48.020;7.822;2023-02-02T12:53:08;7.10;99.90
2565;DHT22;1292;48.020;7.822;2023-02-02T12:55:43;7.10;99.90
2565;DHT22;1292;48.020;7.822;2023-02-02T12:58:23;7.10;99.90
2565;DHT22;1292;48.020;7.822;2023-02-02T13:04:35;7.10;99.90
2565;DHT22;1292;48.020;7.822;2023-02-02T13:07:34;7.20;99.90
2565;DHT22;1292;48.020;7.822;2023-02-02T13:10:10;7.10;99.90
2565;DHT22;1292;48.020;7.822;2023-02-02T13:12:41;7.10;99.90
2565;DHT22;1292;48.020;7.822;2023-02-02T13:15:11;7.10;99.90
2565;DHT22;1292;48.020;7.822;2023-02-02T13:17:43;7.20;99.90
2565;DHT22;1292;48.020;7.822;2023-02-02T13:20:21;7.20;99.90
2565;DHT22;1292;48.020;7.822;2023-02-02T13:22:52;7.20;99.90
2565;DHT22;1292;48.020;7.822;2023-02-02T13:25:23;7.20;99.90
2565;DHT22;1292;48.020;7.822;2023-02-02T13:27:52;7.20;99.90
2565;DHT22;1292;48.020;7.822;2023-02-02T13:30:26;7.20;99.90
2565;DHT22;1292;48.020;7.822;2023-02-02T13:32:57;7.20;99.90
2565;DHT22;1292;48.020;7.822;2023-02-02T13:35:30;7.20;99.90
2565;DHT22;1292;48.020;7.822;2023-02-02T13:38:04;7.20;99.90
2565;DHT22;1292;48.020;7.822;2023-02-02T13:40:37;7.20;99.90
2565;DHT22;1292;48.020;7.822;2023-02-02T13:43:11;7.20;99.90
2565;DHT22;1292;48.020;7.822;2023-02-02T13:45:47;7.20;99.90
2565;DHT22;1292;48.020;7.822;2023-02-02T13:48:24;7.20;99.90
2565;DHT22;1292;48.020;7.822;2023-02-02T13:51:25;7.20;99.90
2565;DHT22;1292;48.020;7.822;2023-02-02T13:54:25;7.20;99.90
2565;DHT22;1292;48.020;7.822;2023-02-02T13:56:58;7.20;99.90
2565;DHT22;1292;48.020;7.822;2023-02-02T13:59:59;7.10;99.90
2565;DHT22;1292;48.020;7.822;2023-02-02T14:02:31;7.20;99.90
2565;DHT22;1292;48.020;7.822;2023-02-02T14:05:01;7.20;99.90
2565;DHT22;1292;48.020;7.822;2023-02-02T14:07:36;7.20;99.90
2565;DHT22;1292;48.020;7.822;2023-02-02T14:10:04;7.10;99.90
2565;DHT22;1292;48.020;7.822;2023-02-02T14:12:33;7.10;99.90
2565;DHT22;1292;48.020;7.822;2023-02-02T14:15:01;7.10;99.90
2565;DHT22;1292;48.020;7.822;2023-02-02T14:17:48;7.20;99.90
2565;DHT22;1292;48.020;7.822;2023-02-02T14:20:43;7.20;99.90
2565;DHT22;1292;48.020;7.822;2023-02-02T14:23:52;7.10;99.90
2565;DHT22;1292;48.020;7.822;2023-02-02T14:26:40;7.20;99.90
2565;DHT22;1292;48.020;7.822;2023-02-02T14:29:35;7.20;99.90
2565;DHT22;1292;48.020;7.822;2023-02-02T14:32:28;7.10;99.90
2565;DHT22;1292;48.020;7.822;2023-02-02T14:34:57;7.10;99.90
2565;DHT22;1292;48.020;7.822;2023-02-02T14:37:36;7.10;99.90
2565;DHT22;1292;48.020;7.822;2023-02-02T14:40:30;7.20;99.90
2565;DHT22;1292;48.020;7.822;2023-02-02T14:43:08;7.10;99.90
2565;DHT22;1292;48.020;7.822;2023-02-02T14:49:15;7.20;99.90
2565;DHT22;1292;48.020;7.822;2023-02-02T14:51:50;7.30;99.90
2565;DHT22;1292;48.020;7.822;2023-02-02T14:54:22;7.30;99.90
2565;DHT22;1292;48.020;7.822;2023-02-02T14:56:56;7.30;99.90
2565;DHT22;1292;48.020;7.822;2023-02-02T14:59:26;7.30;99.90
2565;DHT22;1292;48.020;7.822;2023-02-02T15:02:05;7.40;99.90
2565;DHT22;1292;48.020;7.822;2023-02-02T15:04:34;7.40;99.90
2565;DHT22;1292;48.020;7.822;2023-02-02T15:10:55;7.40;99.90
2565;DHT22;1292;48.020;7.822;2023-02-02T15:13:26;7.40;99.90
2565;DHT22;1292;48.020;7.822;2023-02-02T15:16:03;7.40;99.90
2565;DHT22;1292;48.020;7.822;2023-02-02T15:18:38;7.50;99.90
2565;DHT22;1292;48.020;7.822;2023-02-02T15:21:07;7.50;99.90
2565;DHT22;1292;48.020;7.822;2023-02-02T15:23:41;7.50;99.90
2565;DHT22;1292;48.020;7.822;2023-02-02T15:26:14;7.50;99.90
2565;DHT22;1292;48.020;7.822;2023-02-02T15:28:47;7.40;99.90
2565;DHT22;1292;48.020;7.822;2023-02-02T15:31:18;7.50;99.90
2565;DHT22;1292;48.020;7.822;2023-02-02T15:33:49;7.50;99.90
2565;DHT22;1292;48.020;7.822;2023-02-02T15:36:19;7.50;99.90
2565;DHT22;1292;48.020;7.822;2023-02-02T15:38:50;7.50;99.90
2565;DHT22;1292;48.020;7.822;2023-02-02T15:41:20;7.50;99.90
2565;DHT22;1292;48.020;7.822;2023-02-02T15:43:48;7.50;99.90
2565;DHT22;1292;48.020;7.822;2023-02-02T15:46:18;7.60;99.90
2565;DHT22;1292;48.020;7.822;2023-02-02T15:49:13;7.60;99.90
2565;DHT22;1292;48.020;7.822;2023-02-02T15:51:42;7.60;99.90
2565;DHT22;1292;48.020;7.822;2023-02-02T15:54:20;7.60;99.90
2565;DHT22;1292;48.020;7.822;2023-02-02T15:56:47;7.60;99.90
2565;DHT22;1292;48.020;7.822;2023-02-02T15:59:18;7.60;99.90
2565;DHT22;1292;48.020;7.822;2023-02-02T16:01:47;7.60;99.90
2565;DHT22;1292;48.020;7.822;2023-02-02T16:04:18;7.60;99.90
2565;DHT22;1292;48.020;7.822;2023-02-02T16:06:47;7.50;99.90
2565;DHT22;1292;48.020;7.822;2023-02-02T16:09:21;7.50;99.90
2565;DHT22;1292;48.020;7.822;2023-02-02T16:11:49;7.50;99.90
2565;DHT22;1292;48.020;7.822;2023-02-02T16:14:18;7.50;99.90
2565;DHT22;1292;48.020;7.822;2023-02-02T16:16:46;7.50;99.90
2565;DHT22;1292;48.020;7.822;2023-02-02T16:19:17;7.50;99.90
2565;DHT22;1292;48.020;7.822;2023-02-02T16:21:47;7.50;99.90
2565;DHT22;1292;48.020;7.822;2023-02-02T16:24:19;7.50;99.90
2565;DHT22;1292;48.020;7.822;2023-02-02T16:26:47;7.50;99.90
2565;DHT22;1292;48.020;7.822;2023-02-02T16:29:17;7.50;99.90
2565;DHT22;1292;48.020;7.822;2023-02-02T16:31:45;7.50;99.90
2565;DHT22;1292;48.020;7.822;2023-02-02T16:34:14;7.50;99.90
2565;DHT22;1292;48.020;7.822;2023-02-02T16:36:42;7.50;99.90
2565;DHT22;1292;48.020;7.822;2023-02-02T16:39:14;7.50;99.90
2565;DHT22;1292;48.020;7.822;2023-02-02T16:41:41;7.50;99.90
2565;DHT22;1292;48.020;7.822;2023-02-02T16:44:37;7.50;99.90
2565;DHT22;1292;48.020;7.822;2023-02-02T16:47:05;7.50;99.90
2565;DHT22;1292;48.020;7.822;2023-02-02T16:49:33;7.60;99.90
2565;DHT22;1292;48.020;7.822;2023-02-02T16:52:12;7.60;99.90
2565;DHT22;1292;48.020;7.822;2023-02-02T16:54:42;7.60;99.90
2565;DHT22;1292;48.020;7.822;2023-02-02T16:57:18;7.60;99.90
2565;DHT22;1292;48.020;7.822;2023-02-02T16:59:49;7.60;99.90
2565;DHT22;1292;48.020;7.822;2023-02-02T17:02:24;7.60;99.90
2565;DHT22;1292;48.020;7.822;2023-02-02T17:04:55;7.60;99.90
2565;DHT22;1292;48.020;7.822;2023-02-02T17:07:24;7.60;99.90
2565;DHT22;1292;48.020;7.822;2023-02-02T17:10:11;7.60;99.90
2565;DHT22;1292;48.020;7.822;2023-02-02T17:12:39;7.60;99.90
2565;DHT22;1292;48.020;7.822;2023-02-02T17:15:29;7.60;99.90
2565;DHT22;1292;48.020;7.822;2023-02-02T17:17:56;7.60;99.90
2565;DHT22;1292;48.020;7.822;2023-02-02T17:20:23;7.50;99.90
2565;DHT22;1292;48.020;7.822;2023-02-02T17:22:54;7.50;99.90
2565;DHT22;1292;48.020;7.822;2023-02-02T17:25:29;7.50;99.90
2565;DHT22;1292;48.020;7.822;2023-02-02T17:27:58;7.50;99.90
2565;DHT22;1292;48.020;7.822;2023-02-02T17:30:29;7.50;99.90
2565;DHT22;1292;48.020;7.822;2023-02-02T17:32:56;7.60;99.90
2565;DHT22;1292;48.020;7.822;2023-02-02T17:35:25;7.60;99.90
2565;DHT22;1292;48.020;7.822;2023-02-02T17:37:53;7.60;99.90
2565;DHT22;1292;48.020;7.822;2023-02-02T17:40:22;7.60;99.90
2565;DHT22;1292;48.020;7.822;2023-02-02T17:42:50;7.50;99.90
2565;DHT22;1292;48.020;7.822;2023-02-02T17:45:20;7.50;99.90
2565;DHT22;1292;48.020;7.822;2023-02-02T17:47:49;7.50;99.90
2565;DHT22;1292;48.020;7.822;2023-02-02T17:50:17;7.40;99.90
2565;DHT22;1292;48.020;7.822;2023-02-02T17:52:46;7.40;99.90
2565;DHT22;1292;48.020;7.822;2023-02-02T17:55:18;7.40;99.90
2565;DHT22;1292;48.020;7.822;2023-02-02T17:57:46;7.40;99.90
2565;DHT22;1292;48.020;7.822;2023-02-02T18:00:13;7.40;99.90
2565;DHT22;1292;48.020;7.822;2023-02-02T18:02:40;7.40;99.90
2565;DHT22;1292;48.020;7.822;2023-02-02T18:05:09;7.30;99.90
2565;DHT22;1292;48.020;7.822;2023-02-02T18:07:38;7.40;99.90
2565;DHT22;1292;48.020;7.822;2023-02-02T18:10:06;7.40;99.90
2565;DHT22;1292;48.020;7.822;2023-02-02T18:12:33;7.40;99.90
2565;DHT22;1292;48.020;7.822;2023-02-02T18:15:00;7.40;99.90
2565;DHT22;1292;48.020;7.822;2023-02-02T18:17:27;7.40;99.90
2565;DHT22;1292;48.020;7.822;2023-02-02T18:19:54;7.40;99.90
2565;DHT22;1292;48.020;7.822;2023-02-02T18:22:22;7.40;99.90
2565;DHT22;1292;48.020;7.822;2023-02-02T18:24:49;7.40;99.90
2565;DHT22;1292;48.020;7.822;2023-02-02T18:27:17;7.30;99.90
2565;DHT22;1292;48.020;7.822;2023-02-02T18:29:45;7.30;99.90
2565;DHT22;1292;48.020;7.822;2023-02-02T18:32:12;7.30;99.90
2565;DHT22;1292;48.020;7.822;2023-02-02T18:34:38;7.30;99.90
2565;DHT22;1292;48.020;7.822;2023-02-02T18:37:05;7.30;99.90
2565;DHT22;1292;48.020;7.822;2023-02-02T18:39:34;7.30;99.90
2565;DHT22;1292;48.020;7.822;2023-02-02T18:42:02;7.20;99.90
2565;DHT22;1292;48.020;7.822;2023-02-02T18:44:29;7.10;99.90
2565;DHT22;1292;48.020;7.822;2023-02-02T18:46:58;7.20;99.90
2565;DHT22;1292;48.020;7.822;2023-02-02T18:49:25;7.20;99.90
2565;DHT22;1292;48.020;7.822;2023-02-02T18:51:53;7.20;99.90
2565;DHT22;1292;48.020;7.822;2023-02-02T18:54:19;7.20;99.90
2565;DHT22;1292;48.020;7.822;2023-02-02T18:56:48;7.20;99.90
2565;DHT22;1292;48.020;7.822;2023-02-02T18:59:15;7.20;99.90
2565;DHT22;1292;48.020;7.822;2023-02-02T19:01:42;7.20;99.90
2565;DHT22;1292;48.020;7.822;2023-02-02T19:04:08;7.20;99.90
2565;DHT22;1292;48.020;7.822;2023-02-02T19:06:35;7.20;99.90
2565;DHT22;1292;48.020;7.822;2023-02-02T19:09:19;7.20;99.90
2565;DHT22;1292;48.020;7.822;2023-02-02T19:11:49;7.20;99.90
2565;DHT22;1292;48.020;7.822;2023-02-02T19:14:20;7.20;99.90
2565;DHT22;1292;48.020;7.822;2023-02-02T19:16:49;7.20;99.90
2565;DHT22;1292;48.020;7.822;2023-02-02T19:19:22;7.20;99.90
2565;DHT22;1292;48.020;7.822;2023-02-02T19:21:51;7.30;99.90
2565;DHT22;1292;48.020;7.822;2023-02-02T19:24:18;7.30;99.90
2565;DHT22;1292;48.020;7.822;2023-02-02T19:26:48;7.30;99.90
2565;DHT22;1292;48.020;7.822;2023-02-02T19:29:18;7.20;99.90
2565;DHT22;1292;48.020;7.822;2023-02-02T19:31:45;7.20;99.90
2565;DHT22;1292;48.020;7.822;2023-02-02T19:34:18;7.20;99.90
2565;DHT22;1292;48.020;7.822;2023-02-02T19:36:46;7.20;99.90
2565;DHT22;1292;48.020;7.822;2023-02-02T19:39:18;7.10;99.90
2565;DHT22;1292;48.020;7.822;2023-02-02T19:41:45;7.20;99.90
2565;DHT22;1292;48.020;7.822;2023-02-02T19:44:19;7.20;99.90
2565;DHT22;1292;48.020;7.822;2023-02-02T19:46:47;7.10;99.90
2565;DHT22;1292;48.020;7.822;2023-02-02T19:49:22;7.20;99.90
2565;DHT22;1292;48.020;7.822;2023-02-02T19:51:51;7.10;99.90
2565;DHT22;1292;48.020;7.822;2023-02-02T19:54:31;7.20;99.90
2565;DHT22;1292;48.020;7.822;2023-02-02T19:57:00;7.20;99.90
2565;DHT22;1292;48.020;7.822;2023-02-02T19:59:33;7.20;99.90
2565;DHT22;1292;48.020;7.822;2023-02-02T20:02:18;7.20;99.90
2565;DHT22;1292;48.020;7.822;2023-02-02T20:04:52;7.20;99.90
2565;DHT22;1292;48.020;7.822;2023-02-02T20:07:24;7.10;99.90
2565;DHT22;1292;48.020;7.822;2023-02-02T20:09:51;7.10;99.90
2565;DHT22;1292;48.020;7.822;2023-02-02T20:12:23;7.10;99.90
2565;DHT22;1292;48.020;7.822;2023-02-02T20:14:53;7.10;99.90
2565;DHT22;1292;48.020;7.822;2023-02-02T20:17:25;7.10;99.90
2565;DHT22;1292;48.020;7.822;2023-02-02T20:19:53;7.10;99.90
2565;DHT22;1292;48.020;7.822;2023-02-02T20:22:23;7.10;99.90
2565;DHT22;1292;48.020;7.822;2023-02-02T20:24:52;7.10;99.90
2565;DHT22;1292;48.020;7.822;2023-02-02T20:27:24;7.10;99.90
2565;DHT22;1292;48.020;7.822;2023-02-02T20:29:54;7.10;99.90
2565;DHT22;1292;48.020;7.822;2023-02-02T20:32:25;7.10;99.90
2565;DHT22;1292;48.020;7.822;2023-02-02T20:34:55;7.00;99.90
2565;DHT22;1292;48.020;7.822;2023-02-02T20:37:25;6.90;99.90
2565;DHT22;1292;48.020;7.822;2023-02-02T20:39:55;7.00;99.90
2565;DHT22;1292;48.020;7.822;2023-02-02T20:42:24;6.90;99.90
2565;DHT22;1292;48.020;7.822;2023-02-02T20:44:52;6.90;99.90
2565;DHT22;1292;48.020;7.822;2023-02-02T20:47:20;6.90;99.90
2565;DHT22;1292;48.020;7.822;2023-02-02T20:49:47;6.90;99.90
2565;DHT22;1292;48.020;7.822;2023-02-02T20:52:16;6.90;99.90
2565;DHT22;1292;48.020;7.822;2023-02-02T20:54:48;6.90;99.90
2565;DHT22;1292;48.020;7.822;2023-02-02T20:57:15;6.90;99.90
2565;DHT22;1292;48.020;7.822;2023-02-02T20:59:43;6.80;99.90
2565;DHT22;1292;48.020;7.822;2023-02-02T21:02:12;6.90;99.90
2565;DHT22;1292;48.020;7.822;2023-02-02T21:04:44;6.90;99.90
2565;DHT22;1292;48.020;7.822;2023-02-02T21:07:12;6.80;99.90
2565;DHT22;1292;48.020;7.822;2023-02-02T21:09:39;6.90;99.90
2565;DHT22;1292;48.020;7.822;2023-02-02T21:12:05;6.90;99.90
2565;DHT22;1292;48.020;7.822;2023-02-02T21:14:33;6.90;99.90
2565;DHT22;1292;48.020;7.822;2023-02-02T21:17:00;6.80;99.90
2565;DHT22;1292;48.020;7.822;2023-02-02T21:19:28;6.80;99.90
2565;DHT22;1292;48.020;7.822;2023-02-02T21:21:54;6.80;99.90
2565;DHT22;1292;48.020;7.822;2023-02-02T21:24:22;6.80;99.90
2565;DHT22;1292;48.020;7.822;2023-02-02T21:26:49;6.80;99.90
2565;DHT22;1292;48.020;7.822;2023-02-02T21:29:16;6.70;99.90
2565;DHT22;1292;48.020;7.822;2023-02-02T21:31:43;6.70;99.90
2565;DHT22;1292;48.020;7.822;2023-02-02T21:34:10;6.70;99.90
2565;DHT22;1292;48.020;7.822;2023-02-02T21:36:41;6.70;99.90
2565;DHT22;1292;48.020;7.822;2023-02-02T21:39:17;6.70;99.90
2565;DHT22;1292;48.020;7.822;2023-02-02T21:41:44;6.70;99.90
2565;DHT22;1292;48.020;7.822;2023-02-02T21:44:16;6.80;99.90
2565;DHT22;1292;48.020;7.822;2023-02-02T21:46:44;6.70;99.90
2565;DHT22;1292;48.020;7.822;2023-02-02T21:49:19;6.70;99.90
2565;DHT22;1292;48.020;7.822;2023-02-02T21:51:49;6.70;99.90
2565;DHT22;1292;48.020;7.822;2023-02-02T21:54:21;6.80;99.90
2565;DHT22;1292;48.020;7.822;2023-02-02T21:56:49;6.70;99.90
2565;DHT22;1292;48.020;7.822;2023-02-02T21:59:18;6.70;99.90
